AAL673 KORD-KLGA
Flight info
| Callsign | AAL673 |
|---|---|
| Flight time | 1h 41m |
| Altitude | 37000 |
| Route | MOBLE ADIME GERBS Q186 WEVEL ETG MIP4 |
| Aircraft | A321/M-SDE3FGHIRWY/LB1 |
Departure
| Time | 2026-05-04 21:31 |
|---|---|
| Airport | Chicago O'Hare International Airport (KORD) |
Arrival
| Time | 2026-05-04 23:12 |
|---|---|
| Airport | LaGuardia Airport (KLGA) |
| Time | Latitude | Longitude | Altitude | Speed | Heading |
|---|---|---|---|---|---|
| 2026-05-04 21:12 | 41.97400 | -87.89640 | 669 ft | 0 kts | 297° |
| 2026-05-04 21:21 | 41.97395 | -87.89626 | 668 ft | 4 kts | 297° |
| 2026-05-04 21:22 | 41.97383 | -87.89596 | 669 ft | 2 kts | 296° |
| 2026-05-04 21:22 | 41.97377 | -87.89569 | 669 ft | 4 kts | 252° |
| 2026-05-04 21:22 | 41.97391 | -87.89548 | 669 ft | 3 kts | 201° |
| 2026-05-04 21:22 | 41.97412 | -87.89538 | 669 ft | 1 kts | 197° |
| 2026-05-04 21:23 | 41.97413 | -87.89538 | 669 ft | 0 kts | 197° |
| 2026-05-04 21:25 | 41.97411 | -87.89539 | 669 ft | 1 kts | 197° |
| 2026-05-04 21:25 | 41.97407 | -87.89540 | 669 ft | 0 kts | 197° |
| 2026-05-04 21:26 | 41.97396 | -87.89545 | 669 ft | 3 kts | 199° |
| 2026-05-04 21:26 | 41.97368 | -87.89564 | 669 ft | 6 kts | 211° |
| 2026-05-04 21:27 | 41.97327 | -87.89601 | 669 ft | 8 kts | 206° |
| 2026-05-04 21:27 | 41.97268 | -87.89580 | 669 ft | 11 kts | 145° |
| 2026-05-04 21:27 | 41.97206 | -87.89507 | 668 ft | 13 kts | 122° |
| 2026-05-04 21:27 | 41.97195 | -87.89376 | 669 ft | 15 kts | 89° |
| 2026-05-04 21:28 | 41.97195 | -87.89228 | 669 ft | 16 kts | 90° |
| 2026-05-04 21:28 | 41.97196 | -87.89070 | 669 ft | 17 kts | 90° |
| 2026-05-04 21:28 | 41.97195 | -87.88904 | 669 ft | 18 kts | 90° |
| 2026-05-04 21:28 | 41.97195 | -87.88731 | 669 ft | 19 kts | 90° |
| 2026-05-04 21:29 | 41.97196 | -87.88548 | 669 ft | 20 kts | 89° |
| 2026-05-04 21:29 | 41.97196 | -87.88356 | 669 ft | 21 kts | 90° |
| 2026-05-04 21:29 | 41.97196 | -87.88180 | 669 ft | 16 kts | 90° |
| 2026-05-04 21:29 | 41.97187 | -87.88061 | 669 ft | 11 kts | 120° |
| 2026-05-04 21:30 | 41.97116 | -87.88035 | 669 ft | 11 kts | 179° |
| 2026-05-04 21:30 | 41.97035 | -87.88033 | 671 ft | 11 kts | 178° |
| 2026-05-04 21:30 | 41.96957 | -87.88030 | 672 ft | 11 kts | 193° |
| 2026-05-04 21:30 | 41.96884 | -87.88103 | 671 ft | 21 kts | 221° |
| 2026-05-04 21:31 | 41.95931 | -87.89235 | 672 ft | 151 kts | 222° |
| 2026-05-04 21:31 | 41.95135 | -87.90200 | 1297 ft | 147 kts | 220° |
| 2026-05-04 21:31 | 41.94258 | -87.90901 | 1996 ft | 151 kts | 198° |
| 2026-05-04 21:32 | 41.93203 | -87.90846 | 2652 ft | 159 kts | 165° |
| 2026-05-04 21:32 | 41.92249 | -87.89899 | 2919 ft | 184 kts | 135° |
| 2026-05-04 21:32 | 41.91405 | -87.88555 | 3344 ft | 192 kts | 135° |
| 2026-05-04 21:32 | 41.90538 | -87.87135 | 3782 ft | 201 kts | 135° |
| 2026-05-04 21:33 | 41.89654 | -87.85648 | 4225 ft | 210 kts | 134° |
| 2026-05-04 21:33 | 41.88801 | -87.83968 | 4536 ft | 228 kts | 117° |
| 2026-05-04 21:33 | 41.88537 | -87.81833 | 4904 ft | 244 kts | 88° |
| 2026-05-04 21:33 | 41.88767 | -87.79528 | 5269 ft | 256 kts | 83° |
| 2026-05-04 21:34 | 41.89025 | -87.77076 | 5441 ft | 278 kts | 83° |
| 2026-05-04 21:34 | 41.89304 | -87.74397 | 5828 ft | 295 kts | 83° |
| 2026-05-04 21:34 | 41.89592 | -87.71631 | 6491 ft | 303 kts | 84° |
| 2026-05-04 21:34 | 41.89847 | -87.68804 | 7183 ft | 307 kts | 85° |
| 2026-05-04 21:35 | 41.90073 | -87.65937 | 7914 ft | 310 kts | 86° |
| 2026-05-04 21:35 | 41.90275 | -87.63034 | 8646 ft | 314 kts | 87° |
| 2026-05-04 21:35 | 41.90453 | -87.60108 | 9314 ft | 317 kts | 87° |
| 2026-05-04 21:35 | 41.90645 | -87.57121 | 9913 ft | 325 kts | 86° |
| 2026-05-04 21:36 | 41.90853 | -87.54031 | 10288 ft | 343 kts | 86° |
| 2026-05-04 21:36 | 41.91091 | -87.50728 | 10456 ft | 367 kts | 85° |
| 2026-05-04 21:36 | 41.91359 | -87.47233 | 10733 ft | 384 kts | 85° |
| 2026-05-04 21:36 | 41.91647 | -87.43632 | 11306 ft | 391 kts | 85° |
| 2026-05-04 21:37 | 41.91945 | -87.39983 | 11891 ft | 397 kts | 84° |
| 2026-05-04 21:37 | 41.92251 | -87.36264 | 12478 ft | 405 kts | 84° |
| 2026-05-04 21:37 | 41.92562 | -87.32494 | 13130 ft | 407 kts | 84° |
| 2026-05-04 21:37 | 41.92866 | -87.28693 | 13759 ft | 411 kts | 84° |
| 2026-05-04 21:38 | 41.93161 | -87.24865 | 14411 ft | 413 kts | 84° |
| 2026-05-04 21:38 | 41.93449 | -87.21014 | 15038 ft | 416 kts | 84° |
| 2026-05-04 21:38 | 41.93738 | -87.17130 | 15635 ft | 420 kts | 84° |
| 2026-05-04 21:38 | 41.94030 | -87.13212 | 16227 ft | 423 kts | 84° |
| 2026-05-04 21:39 | 41.94327 | -87.09265 | 16811 ft | 426 kts | 84° |
| 2026-05-04 21:39 | 41.94607 | -87.05290 | 17405 ft | 429 kts | 86° |
| 2026-05-04 21:39 | 41.94781 | -87.01274 | 17977 ft | 432 kts | 88° |
| 2026-05-04 21:39 | 41.94857 | -86.97234 | 18527 ft | 435 kts | 89° |
| 2026-05-04 21:40 | 41.94879 | -86.93154 | 19066 ft | 438 kts | 90° |
| 2026-05-04 21:40 | 41.94883 | -86.89056 | 19624 ft | 440 kts | 90° |
| 2026-05-04 21:40 | 41.94896 | -86.84927 | 20166 ft | 443 kts | 90° |
| 2026-05-04 21:40 | 41.94927 | -86.80773 | 20696 ft | 446 kts | 89° |
| 2026-05-04 21:41 | 41.94974 | -86.76592 | 21198 ft | 449 kts | 89° |
| 2026-05-04 21:41 | 41.95033 | -86.72388 | 21692 ft | 451 kts | 89° |
| 2026-05-04 21:41 | 41.95099 | -86.68159 | 22155 ft | 454 kts | 89° |
| 2026-05-04 21:41 | 41.95164 | -86.63908 | 22612 ft | 457 kts | 89° |
| 2026-05-04 21:42 | 41.95226 | -86.59636 | 23057 ft | 459 kts | 89° |
| 2026-05-04 21:42 | 41.95282 | -86.55392 | 23483 ft | 462 kts | 89° |
| 2026-05-04 21:42 | 41.95332 | -86.51076 | 23919 ft | 463 kts | 89° |
| 2026-05-04 21:42 | 41.95379 | -86.46735 | 24333 ft | 466 kts | 90° |
| 2026-05-04 21:43 | 41.95426 | -86.42374 | 24737 ft | 468 kts | 89° |
| 2026-05-04 21:43 | 41.95473 | -86.37991 | 25127 ft | 471 kts | 89° |
| 2026-05-04 21:43 | 41.95520 | -86.33588 | 25521 ft | 472 kts | 89° |
| 2026-05-04 21:43 | 41.95563 | -86.29165 | 25881 ft | 475 kts | 90° |
| 2026-05-04 21:44 | 41.95603 | -86.24720 | 26231 ft | 477 kts | 90° |
| 2026-05-04 21:44 | 41.95519 | -86.20260 | 26587 ft | 479 kts | 96° |
| 2026-05-04 21:44 | 41.95123 | -86.15816 | 26945 ft | 480 kts | 98° |
| 2026-05-04 21:44 | 41.94710 | -86.11358 | 27294 ft | 482 kts | 98° |
| 2026-05-04 21:45 | 41.94292 | -86.06874 | 27629 ft | 484 kts | 98° |
| 2026-05-04 21:45 | 41.94014 | -86.03901 | 27856 ft | 486 kts | 98° |
| 2026-05-04 21:45 | 41.93593 | -85.99392 | 28192 ft | 487 kts | 98° |
| 2026-05-04 21:45 | 41.93170 | -85.94872 | 28499 ft | 489 kts | 98° |
| 2026-05-04 21:46 | 41.92740 | -85.90329 | 28819 ft | 491 kts | 98° |
| 2026-05-04 21:46 | 41.92305 | -85.85771 | 29130 ft | 493 kts | 98° |
| 2026-05-04 21:46 | 41.91867 | -85.81197 | 29462 ft | 495 kts | 98° |
| 2026-05-04 21:46 | 41.91428 | -85.76609 | 29780 ft | 496 kts | 98° |
| 2026-05-04 21:47 | 41.90988 | -85.72006 | 30111 ft | 497 kts | 98° |
| 2026-05-04 21:47 | 41.90546 | -85.67417 | 30543 ft | 495 kts | 97° |
| 2026-05-04 21:47 | 41.90104 | -85.62833 | 30946 ft | 495 kts | 97° |
| 2026-05-04 21:47 | 41.89660 | -85.58263 | 31326 ft | 494 kts | 97° |
| 2026-05-04 21:48 | 41.89214 | -85.53693 | 31689 ft | 493 kts | 97° |
| 2026-05-04 21:48 | 41.88765 | -85.49128 | 32047 ft | 493 kts | 98° |
| 2026-05-04 21:48 | 41.88315 | -85.44572 | 32398 ft | 493 kts | 97° |
| 2026-05-04 21:48 | 41.87866 | -85.40018 | 32748 ft | 492 kts | 97° |
| 2026-05-04 21:49 | 41.87416 | -85.35471 | 33095 ft | 491 kts | 97° |
| 2026-05-04 21:49 | 41.86964 | -85.30932 | 33428 ft | 491 kts | 97° |
| 2026-05-04 21:49 | 41.86508 | -85.26398 | 33744 ft | 490 kts | 97° |
| 2026-05-04 21:49 | 41.86051 | -85.21873 | 34060 ft | 490 kts | 97° |
| 2026-05-04 21:50 | 41.85593 | -85.17348 | 34362 ft | 490 kts | 97° |
| 2026-05-04 21:50 | 41.85134 | -85.12817 | 34667 ft | 489 kts | 97° |
| 2026-05-04 21:50 | 41.84676 | -85.08302 | 34969 ft | 489 kts | 97° |
| 2026-05-04 21:50 | 41.84215 | -85.03780 | 35273 ft | 488 kts | 97° |
| 2026-05-04 21:51 | 41.83752 | -84.99274 | 35578 ft | 487 kts | 98° |
| 2026-05-04 21:51 | 41.83294 | -84.94837 | 35855 ft | 487 kts | 98° |
| 2026-05-04 21:51 | 41.82829 | -84.90345 | 36113 ft | 487 kts | 98° |
| 2026-05-04 21:51 | 41.82365 | -84.85844 | 36368 ft | 487 kts | 98° |
| 2026-05-04 21:52 | 41.81900 | -84.81342 | 36582 ft | 488 kts | 98° |
| 2026-05-04 21:52 | 41.80964 | -84.72384 | 36645 ft | 482 kts | 98° |
| 2026-05-04 21:53 | 41.80027 | -84.63495 | 36645 ft | 481 kts | 98° |
| 2026-05-04 21:53 | 41.79082 | -84.54631 | 36645 ft | 480 kts | 98° |
| 2026-05-04 21:54 | 41.78131 | -84.45794 | 36655 ft | 479 kts | 98° |
| 2026-05-04 21:54 | 41.77757 | -84.36925 | 36661 ft | 477 kts | 89° |
| 2026-05-04 21:55 | 41.77734 | -84.28032 | 36675 ft | 477 kts | 89° |
| 2026-05-04 21:55 | 41.77686 | -84.19142 | 36690 ft | 477 kts | 90° |
| 2026-05-04 21:56 | 41.77624 | -84.10251 | 36692 ft | 477 kts | 90° |
| 2026-05-04 21:56 | 41.77562 | -84.01380 | 36698 ft | 476 kts | 90° |
| 2026-05-04 21:57 | 41.77496 | -83.92515 | 36694 ft | 476 kts | 90° |
| 2026-05-04 21:57 | 41.77425 | -83.83651 | 36693 ft | 475 kts | 90° |
| 2026-05-04 21:58 | 41.77346 | -83.74802 | 36687 ft | 475 kts | 90° |
| 2026-05-04 21:58 | 41.77259 | -83.66011 | 36680 ft | 475 kts | 90° |
| 2026-05-04 21:59 | 41.77168 | -83.57160 | 36672 ft | 475 kts | 90° |
| 2026-05-04 21:59 | 41.76496 | -83.48360 | 36677 ft | 475 kts | 97° |
| 2026-05-04 22:00 | 41.75644 | -83.39585 | 36684 ft | 475 kts | 97° |
| 2026-05-04 22:00 | 41.74790 | -83.30820 | 36688 ft | 474 kts | 97° |
| 2026-05-04 22:01 | 41.73929 | -83.22066 | 36689 ft | 474 kts | 97° |
| 2026-05-04 22:01 | 41.73060 | -83.13314 | 36693 ft | 474 kts | 97° |
| 2026-05-04 22:02 | 41.72189 | -83.04562 | 36687 ft | 475 kts | 97° |
| 2026-05-04 22:02 | 41.71314 | -82.95806 | 36692 ft | 474 kts | 97° |
| 2026-05-04 22:03 | 41.70417 | -82.87058 | 36697 ft | 475 kts | 97° |
| 2026-05-04 22:03 | 41.69513 | -82.78306 | 36701 ft | 475 kts | 97° |
| 2026-05-04 22:04 | 41.68618 | -82.69557 | 36700 ft | 474 kts | 97° |
| 2026-05-04 22:04 | 41.67711 | -82.60808 | 36701 ft | 475 kts | 97° |
| 2026-05-04 22:05 | 41.66793 | -82.52056 | 36707 ft | 475 kts | 97° |
| 2026-05-04 22:05 | 41.65865 | -82.43313 | 36710 ft | 475 kts | 97° |
| 2026-05-04 22:06 | 41.64939 | -82.34568 | 36716 ft | 475 kts | 97° |
| 2026-05-04 22:06 | 41.64010 | -82.25816 | 36719 ft | 475 kts | 97° |
| 2026-05-04 22:07 | 41.63070 | -82.17131 | 36721 ft | 475 kts | 97° |
| 2026-05-04 22:07 | 41.62120 | -82.08399 | 36725 ft | 475 kts | 97° |
| 2026-05-04 22:08 | 41.61164 | -81.99657 | 36732 ft | 476 kts | 97° |
| 2026-05-04 22:08 | 41.60196 | -81.90913 | 36741 ft | 476 kts | 98° |
| 2026-05-04 22:09 | 41.59229 | -81.82160 | 36746 ft | 476 kts | 97° |
| 2026-05-04 22:09 | 41.58258 | -81.73403 | 36748 ft | 477 kts | 98° |
| 2026-05-04 22:10 | 41.57273 | -81.64653 | 36744 ft | 476 kts | 98° |
| 2026-05-04 22:10 | 41.56277 | -81.55913 | 36743 ft | 476 kts | 98° |
| 2026-05-04 22:11 | 41.55277 | -81.47175 | 36758 ft | 476 kts | 98° |
| 2026-05-04 22:11 | 41.54277 | -81.38453 | 36771 ft | 475 kts | 97° |
| 2026-05-04 22:12 | 41.53450 | -81.29710 | 36769 ft | 475 kts | 95° |
| 2026-05-04 22:12 | 41.52723 | -81.20958 | 36762 ft | 474 kts | 95° |
| 2026-05-04 22:13 | 41.51955 | -81.12220 | 36761 ft | 474 kts | 96° |
| 2026-05-04 22:13 | 41.51133 | -81.03489 | 36768 ft | 474 kts | 96° |
| 2026-05-04 22:14 | 41.50307 | -80.94821 | 36772 ft | 474 kts | 96° |
| 2026-05-04 22:14 | 41.49482 | -80.86097 | 36777 ft | 474 kts | 96° |
| 2026-05-04 22:15 | 41.48658 | -80.77378 | 36780 ft | 474 kts | 96° |
| 2026-05-04 22:15 | 41.47822 | -80.68667 | 36782 ft | 473 kts | 96° |
| 2026-05-04 22:16 | 41.46975 | -80.59963 | 36785 ft | 473 kts | 96° |
| 2026-05-04 22:16 | 41.46120 | -80.51257 | 36793 ft | 473 kts | 96° |
| 2026-05-04 22:17 | 41.45263 | -80.42554 | 36793 ft | 474 kts | 96° |
| 2026-05-04 22:17 | 41.44397 | -80.33850 | 36791 ft | 474 kts | 96° |
| 2026-05-04 22:18 | 41.43526 | -80.25147 | 36790 ft | 474 kts | 96° |
| 2026-05-04 22:18 | 41.42648 | -80.16451 | 36794 ft | 474 kts | 96° |
| 2026-05-04 22:19 | 41.41763 | -80.07751 | 36799 ft | 474 kts | 96° |
| 2026-05-04 22:19 | 41.40923 | -79.99047 | 36801 ft | 474 kts | 95° |
| 2026-05-04 22:20 | 41.40097 | -79.90342 | 36813 ft | 473 kts | 95° |
| 2026-05-04 22:20 | 41.39257 | -79.81704 | 36823 ft | 473 kts | 96° |
| 2026-05-04 22:21 | 41.38393 | -79.73019 | 36823 ft | 473 kts | 96° |
| 2026-05-04 22:21 | 41.37520 | -79.64343 | 36819 ft | 472 kts | 96° |
| 2026-05-04 22:22 | 41.36653 | -79.55675 | 36821 ft | 472 kts | 96° |
| 2026-05-04 22:22 | 41.35784 | -79.47016 | 36811 ft | 472 kts | 96° |
| 2026-05-04 22:23 | 41.34900 | -79.38358 | 36824 ft | 472 kts | 96° |
| 2026-05-04 22:23 | 41.34002 | -79.29695 | 36826 ft | 472 kts | 96° |
| 2026-05-04 22:24 | 41.33106 | -79.21037 | 36838 ft | 472 kts | 96° |
| 2026-05-04 22:24 | 41.32205 | -79.12385 | 36830 ft | 472 kts | 96° |
| 2026-05-04 22:25 | 41.31299 | -79.03748 | 36829 ft | 472 kts | 96° |
| 2026-05-04 22:25 | 41.30387 | -78.95109 | 36836 ft | 472 kts | 96° |
| 2026-05-04 22:26 | 41.29467 | -78.86477 | 36832 ft | 471 kts | 96° |
| 2026-05-04 22:26 | 41.28541 | -78.77849 | 36836 ft | 471 kts | 96° |
| 2026-05-04 22:27 | 41.27604 | -78.69228 | 36836 ft | 470 kts | 96° |
| 2026-05-04 22:27 | 41.26668 | -78.60621 | 36832 ft | 471 kts | 96° |
| 2026-05-04 22:28 | 41.25722 | -78.52011 | 36829 ft | 470 kts | 96° |
| 2026-05-04 22:28 | 41.24764 | -78.43393 | 36334 ft | 473 kts | 96° |
| 2026-05-04 22:28 | 41.24285 | -78.39078 | 35837 ft | 472 kts | 96° |
| 2026-05-04 22:29 | 41.23806 | -78.34767 | 35337 ft | 471 kts | 96° |
| 2026-05-04 22:29 | 41.23327 | -78.30473 | 34837 ft | 469 kts | 96° |
| 2026-05-04 22:29 | 41.22847 | -78.26192 | 34337 ft | 468 kts | 95° |
| 2026-05-04 22:29 | 41.22362 | -78.21919 | 33839 ft | 468 kts | 96° |
| 2026-05-04 22:30 | 41.21880 | -78.17698 | 33346 ft | 469 kts | 96° |
| 2026-05-04 22:30 | 41.21392 | -78.13410 | 32929 ft | 470 kts | 96° |
| 2026-05-04 22:30 | 41.20877 | -78.09017 | 32784 ft | 479 kts | 96° |
| 2026-05-04 22:31 | 41.19797 | -78.00268 | 32821 ft | 484 kts | 97° |
| 2026-05-04 22:31 | 41.19244 | -77.95926 | 32815 ft | 470 kts | 97° |
| 2026-05-04 22:31 | 41.18703 | -77.91698 | 32821 ft | 460 kts | 96° |
| 2026-05-04 22:32 | 41.17651 | -77.83371 | 32822 ft | 456 kts | 96° |
| 2026-05-04 22:32 | 41.16608 | -77.75073 | 32822 ft | 456 kts | 96° |
| 2026-05-04 22:33 | 41.15560 | -77.66776 | 32822 ft | 456 kts | 96° |
| 2026-05-04 22:33 | 41.14500 | -77.58482 | 32823 ft | 456 kts | 97° |
| 2026-05-04 22:34 | 41.13433 | -77.50191 | 32823 ft | 456 kts | 97° |
| 2026-05-04 22:34 | 41.12359 | -77.41902 | 32822 ft | 456 kts | 97° |
| 2026-05-04 22:34 | 41.11820 | -77.37764 | 32290 ft | 457 kts | 97° |
| 2026-05-04 22:35 | 41.11276 | -77.33560 | 31505 ft | 466 kts | 97° |
| 2026-05-04 22:35 | 41.10722 | -77.29279 | 31007 ft | 475 kts | 97° |
| 2026-05-04 22:35 | 41.10350 | -77.26411 | 30676 ft | 476 kts | 97° |
| 2026-05-04 22:35 | 41.09787 | -77.22087 | 30172 ft | 475 kts | 98° |
| 2026-05-04 22:36 | 41.09221 | -77.17783 | 29671 ft | 473 kts | 98° |
| 2026-05-04 22:36 | 41.08655 | -77.13503 | 29171 ft | 470 kts | 98° |
| 2026-05-04 22:36 | 41.08092 | -77.09257 | 28674 ft | 467 kts | 98° |
| 2026-05-04 22:36 | 41.07530 | -77.05025 | 28171 ft | 465 kts | 98° |
| 2026-05-04 22:37 | 41.06971 | -77.00827 | 27667 ft | 462 kts | 98° |
| 2026-05-04 22:37 | 41.06413 | -76.96647 | 27168 ft | 458 kts | 98° |
| 2026-05-04 22:37 | 41.05853 | -76.92508 | 26665 ft | 454 kts | 98° |
| 2026-05-04 22:37 | 41.05299 | -76.88405 | 26163 ft | 450 kts | 98° |
| 2026-05-04 22:38 | 41.04752 | -76.84330 | 25664 ft | 448 kts | 98° |
| 2026-05-04 22:38 | 41.04207 | -76.80278 | 25172 ft | 445 kts | 99° |
| 2026-05-04 22:38 | 41.03664 | -76.76257 | 24696 ft | 442 kts | 99° |
| 2026-05-04 22:38 | 41.03123 | -76.72264 | 24196 ft | 440 kts | 99° |
| 2026-05-04 22:39 | 41.02584 | -76.68292 | 23698 ft | 437 kts | 99° |
| 2026-05-04 22:39 | 41.01843 | -76.64399 | 23194 ft | 436 kts | 107° |
| 2026-05-04 22:39 | 41.00923 | -76.60584 | 22694 ft | 434 kts | 107° |
| 2026-05-04 22:39 | 41.00008 | -76.56791 | 22192 ft | 432 kts | 108° |
| 2026-05-04 22:40 | 40.99109 | -76.53062 | 21700 ft | 430 kts | 108° |
| 2026-05-04 22:40 | 40.98202 | -76.49289 | 21199 ft | 429 kts | 108° |
| 2026-05-04 22:40 | 40.97301 | -76.45534 | 20697 ft | 427 kts | 108° |
| 2026-05-04 22:40 | 40.96405 | -76.41800 | 20194 ft | 425 kts | 108° |
| 2026-05-04 22:41 | 40.95511 | -76.38090 | 19696 ft | 422 kts | 108° |
| 2026-05-04 22:41 | 40.94627 | -76.34429 | 19422 ft | 413 kts | 108° |
| 2026-05-04 22:41 | 40.93759 | -76.30851 | 19184 ft | 405 kts | 108° |
| 2026-05-04 22:41 | 40.92897 | -76.27317 | 18952 ft | 403 kts | 108° |
| 2026-05-04 22:42 | 40.92036 | -76.23799 | 18865 ft | 401 kts | 108° |
| 2026-05-04 22:42 | 40.91178 | -76.20284 | 18871 ft | 402 kts | 108° |
| 2026-05-04 22:42 | 40.90315 | -76.16742 | 18137 ft | 410 kts | 108° |
| 2026-05-04 22:42 | 40.89450 | -76.13181 | 17834 ft | 401 kts | 109° |
| 2026-05-04 22:43 | 40.88606 | -76.09705 | 17382 ft | 397 kts | 109° |
| 2026-05-04 22:43 | 40.87757 | -76.06242 | 16903 ft | 394 kts | 109° |
| 2026-05-04 22:43 | 40.86916 | -76.02820 | 16483 ft | 389 kts | 109° |
| 2026-05-04 22:43 | 40.86081 | -75.99432 | 16066 ft | 386 kts | 109° |
| 2026-05-04 22:44 | 40.85255 | -75.96073 | 15652 ft | 383 kts | 109° |
| 2026-05-04 22:44 | 40.84435 | -75.92740 | 15241 ft | 380 kts | 109° |
| 2026-05-04 22:44 | 40.83619 | -75.89428 | 14832 ft | 378 kts | 109° |
| 2026-05-04 22:44 | 40.82806 | -75.86141 | 14416 ft | 376 kts | 109° |
| 2026-05-04 22:45 | 40.81997 | -75.82870 | 14013 ft | 374 kts | 109° |
| 2026-05-04 22:45 | 40.80389 | -75.76380 | 13225 ft | 370 kts | 109° |
| 2026-05-04 22:45 | 40.79589 | -75.73172 | 12985 ft | 367 kts | 109° |
| 2026-05-04 22:46 | 40.78792 | -75.69972 | 12991 ft | 368 kts | 109° |
| 2026-05-04 22:46 | 40.77992 | -75.66758 | 12996 ft | 369 kts | 109° |
| 2026-05-04 22:46 | 40.77191 | -75.63549 | 12992 ft | 368 kts | 109° |
| 2026-05-04 22:46 | 40.76391 | -75.60345 | 12990 ft | 369 kts | 109° |
| 2026-05-04 22:47 | 40.75589 | -75.57129 | 12987 ft | 369 kts | 109° |
| 2026-05-04 22:47 | 40.74797 | -75.53950 | 12605 ft | 368 kts | 109° |
| 2026-05-04 22:47 | 40.74001 | -75.50766 | 12361 ft | 365 kts | 109° |
| 2026-05-04 22:47 | 40.73204 | -75.47591 | 12106 ft | 364 kts | 109° |
| 2026-05-04 22:48 | 40.72421 | -75.44426 | 11859 ft | 363 kts | 108° |
| 2026-05-04 22:48 | 40.71716 | -75.41199 | 11606 ft | 361 kts | 105° |
| 2026-05-04 22:48 | 40.71086 | -75.37996 | 11366 ft | 361 kts | 105° |
| 2026-05-04 22:48 | 40.70481 | -75.34792 | 11116 ft | 357 kts | 105° |
| 2026-05-04 22:49 | 40.69893 | -75.31695 | 10862 ft | 355 kts | 105° |
| 2026-05-04 22:49 | 40.69289 | -75.28551 | 10621 ft | 352 kts | 105° |
| 2026-05-04 22:49 | 40.68680 | -75.25417 | 10390 ft | 352 kts | 105° |
| 2026-05-04 22:49 | 40.68064 | -75.22303 | 10138 ft | 350 kts | 106° |
| 2026-05-04 22:50 | 40.67448 | -75.19219 | 9981 ft | 348 kts | 106° |
| 2026-05-04 22:50 | 40.66670 | -75.16211 | 10010 ft | 346 kts | 117° |
| 2026-05-04 22:50 | 40.65465 | -75.13480 | 10020 ft | 344 kts | 129° |
| 2026-05-04 22:50 | 40.63909 | -75.11107 | 10013 ft | 343 kts | 136° |
| 2026-05-04 22:51 | 40.62287 | -75.08809 | 10007 ft | 342 kts | 136° |
| 2026-05-04 22:51 | 40.60671 | -75.06506 | 10007 ft | 342 kts | 136° |
| 2026-05-04 22:51 | 40.59056 | -75.04204 | 10010 ft | 342 kts | 136° |
| 2026-05-04 22:51 | 40.57478 | -75.01854 | 10011 ft | 344 kts | 129° |
| 2026-05-04 22:52 | 40.56291 | -74.99106 | 10006 ft | 347 kts | 114° |
| 2026-05-04 22:52 | 40.55419 | -74.96135 | 10013 ft | 350 kts | 112° |
| 2026-05-04 22:52 | 40.54548 | -74.93158 | 10014 ft | 347 kts | 113° |
| 2026-05-04 22:52 | 40.53672 | -74.90200 | 10005 ft | 348 kts | 113° |
| 2026-05-04 22:53 | 40.52787 | -74.87244 | 10011 ft | 347 kts | 113° |
| 2026-05-04 22:53 | 40.51896 | -74.84295 | 10006 ft | 347 kts | 113° |
| 2026-05-04 22:53 | 40.51006 | -74.81345 | 10008 ft | 347 kts | 113° |
| 2026-05-04 22:53 | 40.50129 | -74.78431 | 10006 ft | 347 kts | 113° |
| 2026-05-04 22:54 | 40.49242 | -74.75478 | 10003 ft | 349 kts | 113° |
| 2026-05-04 22:54 | 40.48353 | -74.72519 | 10008 ft | 348 kts | 113° |
| 2026-05-04 22:54 | 40.47464 | -74.69567 | 10012 ft | 347 kts | 113° |
| 2026-05-04 22:54 | 40.46576 | -74.66614 | 10005 ft | 348 kts | 113° |
| 2026-05-04 22:55 | 40.45686 | -74.63658 | 9879 ft | 348 kts | 113° |
| 2026-05-04 22:55 | 40.44806 | -74.60745 | 9696 ft | 337 kts | 113° |
| 2026-05-04 22:55 | 40.43959 | -74.57943 | 9567 ft | 324 kts | 113° |
| 2026-05-04 22:55 | 40.43393 | -74.55133 | 9419 ft | 316 kts | 97° |
| 2026-05-04 22:56 | 40.43424 | -74.52280 | 9168 ft | 311 kts | 80° |
| 2026-05-04 22:56 | 40.44008 | -74.49561 | 8924 ft | 309 kts | 69° |
| 2026-05-04 22:56 | 40.44734 | -74.46909 | 8678 ft | 309 kts | 69° |
| 2026-05-04 22:56 | 40.45456 | -74.44254 | 8429 ft | 308 kts | 69° |
| 2026-05-04 22:57 | 40.46168 | -74.41611 | 8177 ft | 306 kts | 69° |
| 2026-05-04 22:57 | 40.46873 | -74.38976 | 8019 ft | 306 kts | 70° |
| 2026-05-04 22:57 | 40.47573 | -74.36349 | 8018 ft | 305 kts | 70° |
| 2026-05-04 22:57 | 40.48276 | -74.33723 | 8023 ft | 305 kts | 70° |
| 2026-05-04 22:58 | 40.48981 | -74.31101 | 8027 ft | 304 kts | 70° |
| 2026-05-04 22:58 | 40.49685 | -74.28473 | 8023 ft | 304 kts | 70° |
| 2026-05-04 22:58 | 40.50382 | -74.25844 | 8025 ft | 305 kts | 70° |
| 2026-05-04 22:58 | 40.51084 | -74.23219 | 8016 ft | 305 kts | 70° |
| 2026-05-04 22:59 | 40.51794 | -74.20580 | 8018 ft | 306 kts | 70° |
| 2026-05-04 22:59 | 40.52502 | -74.17950 | 8026 ft | 306 kts | 70° |
| 2026-05-04 22:59 | 40.53207 | -74.15312 | 8029 ft | 306 kts | 70° |
| 2026-05-04 22:59 | 40.53895 | -74.12718 | 8018 ft | 293 kts | 70° |
| 2026-05-04 23:00 | 40.54549 | -74.10242 | 8025 ft | 284 kts | 70° |
| 2026-05-04 23:00 | 40.55309 | -74.07853 | 8020 ft | 283 kts | 57° |
| 2026-05-04 23:00 | 40.56606 | -74.05974 | 7885 ft | 276 kts | 29° |
| 2026-05-04 23:00 | 40.58295 | -74.04848 | 7641 ft | 271 kts | 19° |
| 2026-05-04 23:01 | 40.60031 | -74.03905 | 7389 ft | 269 kts | 18° |
| 2026-05-04 23:01 | 40.61768 | -74.02990 | 7145 ft | 269 kts | 17° |
| 2026-05-04 23:01 | 40.63494 | -74.02084 | 6909 ft | 268 kts | 17° |
| 2026-05-04 23:01 | 40.65227 | -74.01177 | 6655 ft | 267 kts | 18° |
| 2026-05-04 23:02 | 40.66933 | -74.00289 | 6408 ft | 267 kts | 18° |
| 2026-05-04 23:02 | 40.68680 | -73.99380 | 6156 ft | 266 kts | 17° |
| 2026-05-04 23:02 | 40.70380 | -73.98493 | 5911 ft | 266 kts | 17° |
| 2026-05-04 23:02 | 40.72121 | -73.97587 | 5657 ft | 266 kts | 18° |
| 2026-05-04 23:03 | 40.73821 | -73.96711 | 5407 ft | 266 kts | 17° |
| 2026-05-04 23:03 | 40.75541 | -73.95828 | 5165 ft | 265 kts | 18° |
| 2026-05-04 23:03 | 40.77263 | -73.94950 | 4924 ft | 266 kts | 18° |
| 2026-05-04 23:03 | 40.78985 | -73.94081 | 4671 ft | 265 kts | 17° |
| 2026-05-04 23:04 | 40.80712 | -73.93215 | 4419 ft | 266 kts | 17° |
| 2026-05-04 23:04 | 40.82444 | -73.92354 | 4173 ft | 265 kts | 17° |
| 2026-05-04 23:04 | 40.84142 | -73.91508 | 4038 ft | 255 kts | 17° |
| 2026-05-04 23:04 | 40.85764 | -73.90699 | 4016 ft | 247 kts | 17° |
| 2026-05-04 23:05 | 40.87374 | -73.89895 | 4020 ft | 247 kts | 17° |
| 2026-05-04 23:05 | 40.88974 | -73.89095 | 4024 ft | 245 kts | 18° |
| 2026-05-04 23:05 | 40.90473 | -73.87982 | 3897 ft | 250 kts | 34° |
| 2026-05-04 23:05 | 40.91839 | -73.86585 | 3655 ft | 247 kts | 37° |
| 2026-05-04 23:06 | 40.93181 | -73.85172 | 3404 ft | 247 kts | 37° |
| 2026-05-04 23:06 | 40.94521 | -73.83752 | 3169 ft | 247 kts | 37° |
| 2026-05-04 23:06 | 40.95853 | -73.82314 | 3048 ft | 246 kts | 44° |
| 2026-05-04 23:06 | 40.96707 | -73.80399 | 2912 ft | 242 kts | 79° |
| 2026-05-04 23:07 | 40.96693 | -73.78257 | 2792 ft | 230 kts | 110° |
| 2026-05-04 23:07 | 40.96179 | -73.76267 | 2697 ft | 228 kts | 116° |
| 2026-05-04 23:07 | 40.95372 | -73.74543 | 2580 ft | 215 kts | 146° |
| 2026-05-04 23:07 | 40.94039 | -73.73969 | 2471 ft | 201 kts | 188° |
| 2026-05-04 23:08 | 40.92830 | -73.74793 | 2348 ft | 201 kts | 226° |
| 2026-05-04 23:08 | 40.91955 | -73.76237 | 2221 ft | 198 kts | 222° |
| 2026-05-04 23:08 | 40.90760 | -73.77056 | 2112 ft | 195 kts | 200° |
| 2026-05-04 23:08 | 40.89571 | -73.77883 | 2039 ft | 190 kts | 212° |
| 2026-05-04 23:09 | 40.88509 | -73.78791 | 2010 ft | 177 kts | 211° |
| 2026-05-04 23:09 | 40.87482 | -73.79655 | 1979 ft | 173 kts | 211° |
| 2026-05-04 23:09 | 40.86476 | -73.80494 | 1822 ft | 172 kts | 211° |
| 2026-05-04 23:09 | 40.85518 | -73.81289 | 1660 ft | 151 kts | 210° |
| 2026-05-04 23:10 | 40.84679 | -73.81984 | 1453 ft | 137 kts | 210° |
| 2026-05-04 23:10 | 40.83884 | -73.82644 | 1272 ft | 136 kts | 210° |
| 2026-05-04 23:10 | 40.83073 | -73.83320 | 1101 ft | 139 kts | 210° |
| 2026-05-04 23:10 | 40.82252 | -73.83996 | 926 ft | 139 kts | 209° |
| 2026-05-04 23:11 | 40.81433 | -73.84682 | 740 ft | 139 kts | 210° |
| 2026-05-04 23:11 | 40.80621 | -73.85356 | 544 ft | 137 kts | 210° |
| 2026-05-04 23:11 | 40.79817 | -73.86026 | 356 ft | 136 kts | 210° |
| 2026-05-04 23:11 | 40.79020 | -73.86685 | 181 ft | 135 kts | 209° |
| 2026-05-04 23:12 | 40.78223 | -73.87335 | 24 ft | 129 kts | 210° |
| 2026-05-04 23:12 | 40.77613 | -73.87838 | 24 ft | 64 kts | 212° |
| 2026-05-04 23:12 | 40.77421 | -73.87990 | 22 ft | 19 kts | 198° |
| 2026-05-04 23:12 | 40.77320 | -73.87999 | 20 ft | 9 kts | 176° |
| 2026-05-04 23:13 | 40.77295 | -73.87969 | 21 ft | 4 kts | 97° |
| 2026-05-04 23:13 | 40.77317 | -73.87934 | 21 ft | 6 kts | 33° |
| 2026-05-04 23:13 | 40.77363 | -73.87896 | 22 ft | 10 kts | 32° |
| 2026-05-04 23:13 | 40.77429 | -73.87842 | 22 ft | 13 kts | 32° |
| 2026-05-04 23:14 | 40.77510 | -73.87774 | 22 ft | 12 kts | 32° |
| 2026-05-04 23:14 | 40.77579 | -73.87717 | 22 ft | 9 kts | 32° |
| 2026-05-04 23:14 | 40.77607 | -73.87643 | 23 ft | 11 kts | 98° |
| 2026-05-04 23:14 | 40.77545 | -73.87565 | 20 ft | 13 kts | 146° |
| 2026-05-04 23:15 | 40.77489 | -73.87494 | 20 ft | 11 kts | 118° |
| 2026-05-04 23:15 | 40.77472 | -73.87412 | 20 ft | 7 kts | 102° |
| 2026-05-04 23:15 | 40.77463 | -73.87376 | 20 ft | 5 kts | 116° |
| 2026-05-04 23:15 | 40.77447 | -73.87328 | 20 ft | 5 kts | 91° |
| 2026-05-04 23:16 | 40.77468 | -73.87291 | 20 ft | 4 kts | 40° |
| 2026-05-04 23:16 | 40.77479 | -73.87279 | 22 ft | 1 kts | 39° |
| 2026-05-04 23:16 | 40.77486 | -73.87273 | 20 ft | 0 kts | 38° |